KLUF/LUF METAR and TAF weather

Enter ICAO airport designator
Station Type Date Time Source
KLUF METAR 2020/09/19 02:58 UTC NOAA

KLUF 190258Z AUTO 31005KT 10SM CLR 33/07 A2981 RMK AO2 SLP080 T03280069 53003 $


Station Type Date Time Source
KLUF Decoded METAR 2020/09/19 02:58 UTC NOAA

Luke Air Force Base / Phoenix, AZ, United States (KLUF) 33-32N 112-23W 332M
Sep 18, 2020 - 10:58 PM EDT / 2020.09.19 0258 UTC
Wind: from the NW (310 degrees) at 6 MPH (5 KT):0
Visibility: 10 mile(s):0
Sky conditions: clear
Temperature: 91.0 F (32.8 C)
Dew Point: 44.4 F (6.9 C)
Relative Humidity: 19%
Pressure (altimeter): 29.81 in. Hg (1009 hPa)
Pressure tendency: 0.01 inches (0.3 hPa) higher than three hours ago
ob: KLUF 190258Z AUTO 31005KT 10SM CLR 33/07 A2981 RMK AO2 SLP080 T03280069 53003
cycle: 3

Station Type Date Time Source
KLUF TAF 2020/09/18 20:15 UTC NOAA

TAF TAF
AMD KLUF 182009Z 1820/1918 VRB06KT 9999 SKC QNH2972INS TX41/1822Z TN22/1906Z LAST NO
AMDS AFT 1820 NEXT 2112

Example: see airport list